Time;durP1;ratioP1;P1;durP2;ratioP2;P2;SDS_P1;SDS_P2;PMS_P1;PMS_P2;Temp;Humidity;BMP_temperature;BMP_pressure;BME280_temperature;BME280_humidity;BME280_pressure;Samples;Min_cycle;Max_cycle;Signal;HPM_P1;HPM_P2
2021/12/11 00:00:02;;;;;;;113.30;53.60;;;;;;;-0.54;100.00;97715.55;2264243;79;21061;-84
2021/12/11 00:03:03;;;;;;;113.65;52.45;;;;;;;-0.58;100.00;97718.84;2264226;79;21036;-84
2021/12/11 00:06:04;;;;;;;109.22;51.48;;;;;;;-0.55;100.00;97716.46;2263561;79;21115;-84
2021/12/11 00:09:05;;;;;;;110.45;48.70;;;;;;;-0.57;100.00;97724.31;2264243;79;21675;-84
2021/12/11 00:12:06;;;;;;;97.15;45.00;;;;;;;-0.63;100.00;97727.92;2264263;79;21020;-84
2021/12/11 00:15:06;;;;;;;97.55;45.85;;;;;;;-0.70;100.00;97726.81;2263483;77;21128;-84
2021/12/11 00:18:07;;;;;;;110.08;50.25;;;;;;;-0.72;100.00;97738.52;2263919;78;21637;-85
2021/12/11 00:21:08;;;;;;;104.40;50.43;;;;;;;-0.61;100.00;97752.55;2251423;79;21071;-85
2021/12/11 00:24:09;;;;;;;115.85;51.73;;;;;;;-0.43;100.00;97751.89;2224313;80;20961;-85
2021/12/11 00:27:10;;;;;;;111.05;50.25;;;;;;;-0.27;100.00;97751.34;2224287;80;21039;-85
2021/12/11 00:30:10;;;;;;;107.45;51.18;;;;;;;-0.13;100.00;97758.20;2224134;80;21032;-85
2021/12/11 00:33:11;;;;;;;104.80;45.90;;;;;;;-0.02;100.00;97756.77;2224462;79;21510;-85
2021/12/11 00:36:12;;;;;;;102.62;47.48;;;;;;;0.06;100.00;97751.42;2252043;79;21480;-85
2021/12/11 00:39:14;;;;;;;111.03;47.33;;;;;;;0.05;100.00;97754.95;2257624;79;20963;-85
2021/12/11 00:42:15;;;;;;;101.20;45.83;;;;;;;0.00;100.00;97766.95;2225194;78;21009;-85
2021/12/11 00:45:16;;;;;;;102.75;45.78;;;;;;;0.01;100.00;97768.57;2223803;80;21080;-85
2021/12/11 00:48:17;;;;;;;94.17;43.15;;;;;;;0.01;100.00;97777.58;2223811;80;21577;-84
2021/12/11 00:51:18;;;;;;;91.97;41.70;;;;;;;0.01;100.00;97780.63;2245546;79;21016;-85
2021/12/11 00:54:18;;;;;;;83.97;41.30;;;;;;;-0.08;100.00;97773.25;2264183;79;20922;-84
2021/12/11 00:57:19;;;;;;;90.00;40.03;;;;;;;-0.22;100.00;97780.88;2264299;79;21080;-84
2021/12/11 01:00:20;;;;;;;82.25;39.63;;;;;;;-0.34;100.00;97780.20;2264183;78;21041;-84
2021/12/11 01:03:21;;;;;;;88.97;40.45;;;;;;;-0.41;100.00;97779.09;2264299;78;21488;-84
2021/12/11 01:06:22;;;;;;;75.35;36.80;;;;;;;-0.52;100.00;97787.41;2264151;78;21067;-85
2021/12/11 01:09:23;;;;;;;89.58;40.70;;;;;;;-0.65;100.00;97786.34;2233315;78;21015;-84
2021/12/11 01:12:24;;;;;;;83.80;38.67;;;;;;;-0.67;100.00;97804.48;2224139;80;21523;-85
2021/12/11 01:15:25;;;;;;;78.22;37.15;;;;;;;-0.66;100.00;97790.67;2215469;79;21099;-85
2021/12/11 01:18:34;;;;;;;59.67;28.85;;;;;;;-0.69;100.00;97796.09;2205441;81;21514;-85
2021/12/11 01:21:32;;;;;;;70.95;33.98;;;;;;;-0.74;100.00;97802.09;2203838;78;21520;-85
2021/12/11 01:24:42;;;;;;;66.25;32.30;;;;;;;-0.77;100.00;97810.07;2204869;81;21004;-85
2021/12/11 01:27:33;;;;;;;67.70;35.43;;;;;;;-0.77;100.00;97804.11;2220190;79;20999;-86
2021/12/11 01:30:34;;;;;;;60.98;31.68;;;;;;;-0.81;100.00;97810.47;2227788;79;21000;-85
2021/12/11 01:33:35;;;;;;;64.03;31.52;;;;;;;-0.87;100.00;97815.17;2205259;81;21071;-86
2021/12/11 01:36:36;;;;;;;71.00;36.75;;;;;;;-0.95;100.00;97814.19;2237530;79;20944;-86
2021/12/11 01:39:37;;;;;;;72.30;35.58;;;;;;;-1.07;100.00;97812.66;2244862;79;21008;-85
2021/12/11 01:42:39;;;;;;;63.60;32.25;;;;;;;-1.05;100.00;97815.44;2244738;79;20999;-85
2021/12/11 01:45:39;;;;;;;65.10;29.45;;;;;;;-1.03;100.00;97811.45;2244609;79;21459;-85
2021/12/11 01:48:40;;;;;;;65.72;32.38;;;;;;;-1.06;100.00;97815.09;2244660;79;21084;-85
2021/12/11 01:51:41;;;;;;;66.28;33.42;;;;;;;-1.15;100.00;97820.53;2244742;79;21033;-85
2021/12/11 01:54:43;;;;;;;70.97;33.13;;;;;;;-1.13;100.00;97813.16;2243652;79;21000;-85
2021/12/11 01:57:46;;;;;;;70.28;32.63;;;;;;;-1.12;100.00;97819.45;2244361;79;21028;-85
2021/12/11 02:00:47;;;;;;;71.50;34.70;;;;;;;-1.11;100.00;97833.92;2244718;79;21011;-85
2021/12/11 02:03:48;;;;;;;64.42;31.50;;;;;;;-1.10;100.00;97836.83;2244597;79;20996;-85
2021/12/11 02:06:49;;;;;;;60.38;30.00;;;;;;;-1.03;100.00;97852.56;2244462;79;21024;-85
2021/12/11 02:09:56;;;;;;;58.15;30.77;;;;;;;-1.00;100.00;97850.57;2204017;81;21121;-85
2021/12/11 02:12:52;;;;;;;56.50;29.48;;;;;;;-0.99;100.00;97857.34;2223226;80;20969;-85
2021/12/11 02:15:54;;;;;;;61.70;30.88;;;;;;;-0.98;100.00;97856.39;2233495;78;21579;-86
2021/12/11 02:18:55;;;;;;;65.32;31.57;;;;;;;-0.92;100.00;97862.75;2227177;79;21573;-85
2021/12/11 02:21:56;;;;;;;67.53;31.30;;;;;;;-0.86;100.00;97852.78;2227910;80;21474;-85
2021/12/11 02:24:57;;;;;;;60.23;30.57;;;;;;;-0.81;100.00;97851.13;2193408;81;21377;-85
2021/12/11 02:27:58;;;;;;;65.65;31.68;;;;;;;-0.65;100.00;97860.91;2228014;80;20986;-86
2021/12/11 02:31:03;;;;;;;70.65;31.93;;;;;;;-0.65;100.00;97860.91;2193948;80;20954;-86
2021/12/11 02:34:07;;;;;;;72.95;34.80;;;;;;;-0.65;100.00;97873.30;2227874;80;21046;-86
2021/12/11 02:37:04;;;;;;;80.55;37.03;;;;;;;-0.54;100.00;97868.55;2192780;81;21031;-87
2021/12/11 02:40:05;;;;;;;84.47;37.25;;;;;;;-0.49;100.00;97876.67;2225872;80;20935;-86
2021/12/11 02:43:06;;;;;;;76.47;34.43;;;;;;;-0.44;100.00;97882.73;2193649;81;21561;-86
2021/12/11 02:46:07;;;;;;;77.47;35.68;;;;;;;-0.50;100.00;97876.34;2228090;80;21050;-86
2021/12/11 02:49:07;;;;;;;83.00;36.13;;;;;;;-0.47;100.00;97877.35;2193646;81;21021;-86
2021/12/11 02:52:08;;;;;;;73.75;34.63;;;;;;;-0.43;100.00;97888.21;2227929;80;20967;-85
2021/12/11 02:55:09;;;;;;;73.45;33.18;;;;;;;-0.42;100.00;97884.22;2193725;80;20979;-86
2021/12/11 02:58:10;;;;;;;76.55;37.15;;;;;;;-0.38;100.00;97889.91;2228013;80;20997;-85
2021/12/11 03:01:11;;;;;;;83.92;38.48;;;;;;;-0.44;100.00;97897.69;2193627;81;20951;-85
2021/12/11 03:04:23;;;;;;;80.97;36.77;;;;;;;-0.35;100.00;97903.34;2213818;80;21562;-85
2021/12/11 03:07:23;;;;;;;85.05;38.92;;;;;;;-0.31;100.00;97902.12;2227870;79;21447;-85
2021/12/11 03:10:23;;;;;;;85.57;40.70;;;;;;;-0.32;100.00;97894.53;2193508;81;21137;-85
2021/12/11 03:13:26;;;;;;;76.25;34.80;;;;;;;-0.22;100.00;97902.28;2198828;80;21046;-84
2021/12/11 03:16:27;;;;;;;95.57;43.13;;;;;;;-0.23;100.00;97904.05;2211875;79;21120;-85
2021/12/11 03:19:29;;;;;;;80.12;39.60;;;;;;;-0.25;100.00;97902.08;2242082;79;21068;-86
2021/12/11 03:22:30;;;;;;;79.65;37.20;;;;;;;-0.16;100.00;97912.87;2241768;79;21013;-86
2021/12/11 03:25:31;;;;;;;84.32;37.78;;;;;;;-0.24;100.00;97911.42;2241973;79;21038;-85
2021/12/11 03:28:32;;;;;;;97.47;41.83;;;;;;;-0.23;100.00;97910.47;2244405;79;21562;-85
2021/12/11 03:31:36;;;;;;;94.15;40.78;;;;;;;-0.19;100.00;97913.11;2261842;79;20919;-85
2021/12/11 03:34:35;;;;;;;75.25;35.45;;;;;;;-0.12;100.00;97912.13;2241209;79;21019;-85
2021/12/11 03:37:37;;;;;;;75.15;34.35;;;;;;;-0.10;100.00;97914.09;2241832;79;21522;-85
2021/12/11 03:40:37;;;;;;;81.53;35.75;;;;;;;-0.11;100.00;97920.18;2244401;79;21003;-85
2021/12/11 03:43:38;;;;;;;91.87;37.23;;;;;;;-0.10;100.00;97923.09;2261869;79;21502;-86
2021/12/11 03:46:39;;;;;;;85.03;38.45;;;;;;;0.00;100.00;97922.67;2241236;79;20933;-85
2021/12/11 03:49:40;;;;;;;77.78;35.73;;;;;;;0.10;100.00;97925.27;2241753;79;21068;-85
2021/12/11 03:52:40;;;;;;;78.92;34.92;;;;;;;0.12;100.00;97922.08;2243828;79;20960;-85
2021/12/11 03:55:41;;;;;;;84.87;38.05;;;;;;;0.19;100.00;97930.91;2224063;79;21096;-85
2021/12/11 03:58:48;;;;;;;91.60;38.65;;;;;;;0.15;100.00;97935.48;2202076;79;21503;-86
2021/12/11 04:01:45;;;;;;;90.25;37.88;;;;;;;0.15;100.00;97935.48;2184000;80;21486;-86
2021/12/11 04:04:45;;;;;;;101.20;41.70;;;;;;;0.16;100.00;97940.97;2183414;81;21018;-85
2021/12/11 04:07:46;;;;;;;76.15;36.25;;;;;;;0.18;100.00;97946.83;2183486;81;21097;-85
2021/12/11 04:10:47;;;;;;;78.75;36.15;;;;;;;0.09;100.00;97948.06;2183471;81;21094;-85
2021/12/11 04:13:48;;;;;;;72.30;35.10;;;;;;;0.05;100.00;97955.25;2183513;81;21071;-85
2021/12/11 04:16:49;;;;;;;68.50;33.13;;;;;;;0.04;100.00;97960.06;2187173;81;21044;-84
2021/12/11 04:19:49;;;;;;;73.85;34.85;;;;;;;0.06;100.00;97948.34;2200501;80;21033;-85
2021/12/11 04:22:50;;;;;;;75.12;32.33;;;;;;;0.10;100.00;97951.01;2205444;79;20972;-85
2021/12/11 04:25:51;;;;;;;65.75;31.97;;;;;;;0.21;100.00;97958.13;2239845;79;21534;-85
2021/12/11 04:28:52;;;;;;;64.60;30.70;;;;;;;0.20;100.00;97953.94;2239746;79;21070;-86
2021/12/11 04:31:53;;;;;;;62.78;29.85;;;;;;;0.25;100.00;97964.63;2204658;79;20966;-85
2021/12/11 04:34:54;;;;;;;64.25;33.10;;;;;;;0.20;100.00;97965.52;2228658;80;21066;-84
2021/12/11 04:37:55;;;;;;;66.97;31.17;;;;;;;0.11;100.00;97961.64;2200578;81;20983;-86
2021/12/11 04:40:57;;;;;;;76.22;33.75;;;;;;;0.11;100.00;97965.50;2228720;80;20991;-84
2021/12/11 04:43:58;;;;;;;77.55;37.63;;;;;;;0.10;100.00;97971.13;2215653;79;21013;-85
2021/12/11 04:46:59;;;;;;;80.22;37.28;;;;;;;0.15;100.00;97986.16;2239630;79;20952;-85
2021/12/11 04:50:04;;;;;;;81.05;37.38;;;;;;;0.19;100.00;97987.55;2239685;79;21083;-84
2021/12/11 04:53:06;;;;;;;78.67;37.42;;;;;;;0.14;100.00;97996.13;2225994;80;21001;-84
2021/12/11 04:59:47;;;;;;;85.05;35.95;;;;;;;0.19;100.00;98006.38;2237770;79;21747;-85
2021/12/11 05:03:13;;;;;;;71.28;30.57;;;;;;;0.17;100.00;97998.42;2198763;81;21003;-84
2021/12/11 05:12:12;;;;;;;68.50;32.65;;;;;;;0.14;100.00;98018.00;2200314;81;20943;-85
2021/12/11 05:15:09;;;;;;;64.58;32.00;;;;;;;0.11;100.00;98026.81;2199554;80;21130;-84
2021/12/11 05:18:10;;;;;;;59.53;28.83;;;;;;;0.11;100.00;98025.53;2166401;82;21084;-84
2021/12/11 05:21:11;;;;;;;76.07;33.08;;;;;;;0.05;100.00;98026.52;2182897;82;20950;-84
2021/12/11 05:24:12;;;;;;;69.03;31.77;;;;;;;0.06;100.00;98024.27;2182604;80;21051;-84
2021/12/11 05:27:13;;;;;;;55.70;27.55;;;;;;;0.06;100.00;98032.00;2192477;81;21051;-85
2021/12/11 05:30:14;;;;;;;62.88;29.27;;;;;;;-0.15;100.00;98046.20;2204540;80;21087;-84
2021/12/11 05:33:15;;;;;;;65.08;31.62;;;;;;;-0.36;100.00;98053.48;2231188;80;21136;-85
2021/12/11 05:36:15;;;;;;;67.27;32.17;;;;;;;-0.40;100.00;98055.14;2229367;80;21004;-85
2021/12/11 05:42:22;;;;;;;61.68;30.27;;;;;;;-0.22;100.00;98052.80;2077381;85;21089;-93
2021/12/11 05:45:23;;;;;;;70.42;35.15;;;;;;;-0.18;100.00;98061.88;2042069;87;21553;-88
2021/12/11 05:48:23;;;;;;;65.45;33.15;;;;;;;-0.20;100.00;98070.20;2071150;86;21107;-86
2021/12/11 05:51:24;;;;;;;57.78;28.20;;;;;;;-0.31;100.00;98071.91;2071306;86;21059;-87
2021/12/11 05:54:25;;;;;;;61.05;30.85;;;;;;;-0.37;100.00;98083.98;2071037;86;21015;-87
2021/12/11 05:57:28;;;;;;;54.65;29.07;;;;;;;-0.38;100.00;98087.98;2071026;86;21704;-87
2021/12/11 06:00:37;;;;;;;;;;;;;;;-0.36;100.00;98093.36;2091185;84;21055;-86
2021/12/11 06:03:44;;;;;;;73.28;32.17;;;;;;;-0.29;100.00;98096.23;2107494;84;20119;-89
2021/12/11 06:06:44;;;;;;;66.80;31.37;;;;;;;-0.26;100.00;98097.28;2109595;84;21023;-90
2021/12/11 06:09:45;;;;;;;67.60;30.45;;;;;;;-0.20;100.00;98103.66;2109160;84;21594;-90
2021/12/11 06:12:47;;;;;;;54.00;28.55;;;;;;;-0.19;100.00;98109.14;2107536;84;21123;-89
2021/12/11 06:15:48;;;;;;;69.45;32.70;;;;;;;-0.24;100.00;98117.27;2109174;84;21101;-84
2021/12/11 06:18:49;;;;;;;64.53;31.17;;;;;;;-0.25;100.00;98123.35;2095684;85;20988;-85
2021/12/11 06:21:50;;;;;;;58.65;29.55;;;;;;;-0.19;100.00;98130.55;2118271;84;21169;-85
2021/12/11 06:24:51;;;;;;;62.75;31.52;;;;;;;-0.25;100.00;98135.41;2075800;86;21562;-85
2021/12/11 06:27:51;;;;;;;66.53;33.48;;;;;;;-0.29;100.00;98147.20;2092738;84;21037;-85
2021/12/11 06:30:57;;;;;;;67.37;31.85;;;;;;;-0.26;100.00;98141.49;2097460;85;21038;-85
2021/12/11 06:33:55;;;;;;;71.47;32.85;;;;;;;-0.38;100.00;98141.52;2097487;85;21010;-84
2021/12/11 06:36:56;;;;;;;71.50;32.53;;;;;;;-0.45;100.00;98142.98;2097931;85;21508;-85
2021/12/11 06:39:57;;;;;;;71.02;33.83;;;;;;;-0.43;100.00;98148.00;2097664;85;20986;-86
2021/12/11 06:42:57;;;;;;;70.30;33.33;;;;;;;-0.41;100.00;98148.22;2097983;85;21029;-84
2021/12/11 06:45:58;;;;;;;72.10;33.33;;;;;;;-0.40;100.00;98146.45;2169239;81;20998;-86
2021/12/11 06:48:59;;;;;;;85.50;38.58;;;;;;;-0.38;100.00;98151.81;2195185;81;21023;-87
2021/12/11 06:52:00;;;;;;;76.22;36.70;;;;;;;-0.35;100.00;98155.92;2155534;82;21053;-87
2021/12/11 06:55:01;;;;;;;72.47;33.53;;;;;;;-0.46;100.00;98166.23;2195510;81;20956;-86
2021/12/11 06:58:01;;;;;;;67.75;33.70;;;;;;;-0.48;100.00;98177.94;2173820;81;20978;-88
2021/12/11 07:01:02;;;;;;;76.65;35.90;;;;;;;-0.57;100.00;98173.06;2201178;80;20969;-87
2021/12/11 07:04:03;;;;;;;84.03;37.30;;;;;;;-0.60;100.00;98174.59;2238062;78;20991;-88
2021/12/11 07:07:04;;;;;;;64.62;30.85;;;;;;;-0.59;100.00;98170.27;2269102;78;20994;-86
2021/12/11 07:10:04;;;;;;;94.32;42.20;;;;;;;-0.71;100.00;98174.64;2227073;80;21022;-88
2021/12/11 07:13:05;;;;;;;87.10;42.25;;;;;;;-0.86;100.00;98184.38;2230274;80;20989;-91
2021/12/11 07:16:06;;;;;;;81.55;38.17;;;;;;;-0.78;100.00;98188.91;2231967;80;21105;-87
2021/12/11 07:19:06;;;;;;;75.78;35.40;;;;;;;-0.75;100.00;98195.56;2229782;79;20955;-90
2021/12/11 07:22:07;;;;;;;72.05;36.80;;;;;;;-0.82;100.00;98200.83;2240076;79;21063;-88
2021/12/11 07:25:16;;;;;;;78.78;39.58;;;;;;;-0.96;100.00;98204.49;2239664;79;21024;-85
2021/12/11 07:28:17;;;;;;;90.65;42.35;;;;;;;-1.00;100.00;98203.92;2240346;79;20989;-86
2021/12/11 07:31:17;;;;;;;83.00;41.30;;;;;;;-0.85;100.00;98204.47;2240085;79;21006;-87
2021/12/11 07:34:18;;;;;;;81.08;38.15;;;;;;;-0.80;100.00;98211.83;2240254;79;21078;-86
2021/12/11 07:37:21;;;;;;;80.67;38.55;;;;;;;-0.68;100.00;98234.81;2227961;78;21014;-86
2021/12/11 07:40:21;;;;;;;73.83;39.27;;;;;;;-0.63;100.00;98235.28;2220674;79;21582;-88
2021/12/11 07:43:22;;;;;;;83.45;41.85;;;;;;;-0.61;100.00;98235.97;2241670;78;20957;-85
2021/12/11 07:46:23;;;;;;;79.75;41.23;;;;;;;-0.48;100.00;98253.00;2224527;79;21017;-89
2021/12/11 07:49:24;;;;;;;91.72;42.85;;;;;;;-0.46;100.00;98257.08;2218519;79;20995;-85
2021/12/11 07:52:27;;;;;;;87.00;40.92;;;;;;;-0.35;100.00;98254.97;2218605;79;20931;-84
2021/12/11 07:55:27;;;;;;;85.17;40.15;;;;;;;-0.22;100.00;98256.89;2232376;78;20971;-84
2021/12/11 07:58:34;;;;;;;77.05;37.00;;;;;;;-0.12;100.00;98262.94;2248184;78;21041;-86
2021/12/11 08:01:31;;;;;;;75.97;37.95;;;;;;;-0.17;100.00;98271.98;2219066;79;21019;-87
2021/12/11 08:04:32;;;;;;;82.80;39.92;;;;;;;-0.21;100.00;98277.01;2224914;79;21612;-87
2021/12/11 08:07:33;;;;;;;82.75;40.65;;;;;;;-0.32;100.00;98257.28;2243609;79;20958;-85
2021/12/11 08:10:33;;;;;;;94.17;46.15;;;;;;;-0.15;100.00;98270.09;2239584;79;21081;-87
2021/12/11 08:13:34;;;;;;;88.00;43.87;;;;;;;0.02;100.00;98275.18;2224331;79;20950;-87
2021/12/11 08:16:44;;;;;;;99.45;46.20;;;;;;;0.12;100.00;98285.08;2202856;80;21041;-86
2021/12/11 08:19:40;;;;;;;114.88;52.20;;;;;;;0.22;100.00;98288.54;2233209;79;21011;-85
2021/12/11 08:22:40;;;;;;;170.92;65.32;;;;;;;0.43;100.00;98287.25;2201736;80;20958;-86
2021/12/11 08:25:44;;;;;;;137.97;57.33;;;;;;;0.55;100.00;98284.97;2236737;78;20958;-86
2021/12/11 08:28:44;;;;;;;201.70;78.15;;;;;;;0.58;100.00;98295.02;2266608;78;21117;-86
2021/12/11 08:31:44;;;;;;;163.68;68.90;;;;;;;0.60;100.00;98295.70;2258387;79;21411;-87
2021/12/11 08:34:45;;;;;;;124.02;53.70;;;;;;;0.70;100.00;98291.88;2220408;80;21022;-89
2021/12/11 08:37:46;;;;;;;106.25;49.45;;;;;;;0.63;100.00;98277.39;2242304;79;21463;-88
2021/12/11 08:40:46;;;;;;;77.08;38.10;;;;;;;0.55;100.00;98283.21;2204818;80;21010;-88
2021/12/11 08:43:56;;;;;;;92.90;46.98;;;;;;;0.47;100.00;98315.22;2202242;81;21097;-85
2021/12/11 08:46:49;;;;;;;107.25;51.65;;;;;;;0.21;100.00;98321.20;2237440;79;21045;-87
2021/12/11 08:49:50;;;;;;;108.83;50.00;;;;;;;0.24;100.00;98328.67;2282226;78;20996;-86
2021/12/11 08:52:51;;;;;;;82.20;42.73;;;;;;;0.20;100.00;98334.20;2282566;78;21108;-85
2021/12/11 08:55:51;;;;;;;89.67;45.15;;;;;;;0.12;100.00;98336.58;2282398;78;20966;-84
2021/12/11 08:58:52;;;;;;;89.22;46.83;;;;;;;0.24;100.00;98337.68;2265453;78;21049;-84
2021/12/11 09:01:53;;;;;;;73.52;39.83;;;;;;;0.39;100.00;98342.08;2261683;79;21013;-84
2021/12/11 09:04:55;;;;;;;83.35;44.05;;;;;;;0.31;100.00;98361.19;2262270;79;20970;-84
2021/12/11 09:07:55;;;;;;;78.52;43.08;;;;;;;0.43;100.00;98361.95;2261942;79;21528;-85
2021/12/11 09:10:56;;;;;;;85.90;49.65;;;;;;;0.57;100.00;98360.38;2261975;79;20951;-87
2021/12/11 09:13:57;;;;;;;83.80;48.50;;;;;;;0.70;100.00;98360.99;2262145;79;21540;-86
2021/12/11 09:17:00;;;;;;;78.97;44.35;;;;;;;0.86;100.00;98357.98;2262000;79;21037;-84
2021/12/11 09:20:00;;;;;;;72.72;38.15;;;;;;;1.12;100.00;98359.20;2262250;79;21005;-85
2021/12/11 09:23:03;;;;;;;80.75;41.92;;;;;;;1.34;100.00;98365.95;2262137;79;22059;-83
2021/12/11 09:26:05;;;;;;;80.83;41.80;;;;;;;1.48;100.00;98362.69;2236969;79;21525;-85
2021/12/11 09:29:06;;;;;;;67.97;39.98;;;;;;;1.64;100.00;98374.12;2261936;79;21077;-84
2021/12/11 09:32:06;;;;;;;91.17;55.50;;;;;;;1.74;100.00;98373.33;2262184;79;21450;-86
2021/12/11 09:35:07;;;;;;;108.07;71.82;;;;;;;1.88;100.00;98367.33;2260442;78;21037;-86
2021/12/11 09:38:08;;;;;;;90.10;58.42;;;;;;;2.05;100.00;98373.62;2260147;79;20994;-88
2021/12/11 09:41:08;;;;;;;92.78;53.42;;;;;;;2.20;100.00;98371.00;2260018;79;20974;-86
2021/12/11 09:44:09;;;;;;;104.92;57.55;;;;;;;2.35;100.00;98380.91;2259896;79;20967;-88
2021/12/11 09:47:10;;;;;;;115.12;64.95;;;;;;;2.34;100.00;98384.45;2260216;79;20939;-87
2021/12/11 09:50:11;;;;;;;132.00;69.50;;;;;;;2.44;100.00;98383.50;2260103;78;21010;-85
2021/12/11 09:53:12;;;;;;;154.82;81.85;;;;;;;2.48;100.00;98383.58;2259940;79;21002;-86
2021/12/11 09:56:12;;;;;;;140.70;74.27;;;;;;;2.47;100.00;98392.29;2259912;78;20979;-85
2021/12/11 09:59:13;;;;;;;108.67;59.63;;;;;;;2.51;100.00;98407.85;2260096;79;20990;-86
2021/12/11 10:02:14;;;;;;;88.58;50.08;;;;;;;2.42;100.00;98424.65;2259799;79;20951;-85
2021/12/11 10:05:29;;;;;;;83.78;48.95;;;;;;;2.42;100.00;98418.19;2259738;78;21007;-84
2021/12/11 10:08:37;;;;;;;79.10;42.15;;;;;;;2.57;100.00;98428.47;2257033;79;21058;-84
2021/12/11 10:11:35;;;;;;;90.13;48.33;;;;;;;2.62;100.00;98427.58;2259329;79;21478;-85
2021/12/11 10:14:36;;;;;;;86.60;48.28;;;;;;;2.73;100.00;98423.55;2260211;78;21055;-86
2021/12/11 10:17:39;;;;;;;83.05;42.67;;;;;;;2.82;100.00;98439.53;2260608;79;21003;-84
2021/12/11 10:20:39;;;;;;;76.30;42.25;;;;;;;2.86;100.00;98453.03;2261877;79;21013;-88
2021/12/11 10:23:40;;;;;;;71.00;41.18;;;;;;;2.85;100.00;98462.56;2261936;79;21494;-82
2021/12/11 10:26:41;;;;;;;81.95;46.73;;;;;;;2.88;100.00;98461.94;2262093;79;20998;-83
2021/12/11 10:29:42;;;;;;;77.75;44.15;;;;;;;2.98;100.00;98460.16;2262159;79;21014;-83
2021/12/11 10:32:43;;;;;;;78.92;45.30;;;;;;;3.07;100.00;98461.44;2263194;79;20891;-84
2021/12/11 10:35:44;;;;;;;84.32;49.03;;;;;;;3.04;100.00;98460.91;2263936;79;20981;-84
2021/12/11 10:38:45;;;;;;;78.78;46.28;;;;;;;3.23;100.00;98460.06;2287732;77;20929;-86
2021/12/11 10:41:45;;;;;;;72.60;43.35;;;;;;;3.43;100.00;98460.35;2306452;77;21045;-86
2021/12/11 10:44:46;;;;;;;70.87;43.65;;;;;;;3.60;100.00;98448.45;2306279;77;20942;-87
2021/12/11 10:47:48;;;;;;;74.07;44.38;;;;;;;3.78;100.00;98447.23;2306695;77;21041;-84
2021/12/11 10:50:49;;;;;;;80.07;45.25;;;;;;;3.80;100.00;98455.66;2306570;77;20978;-84
2021/12/11 10:53:50;;;;;;;88.22;47.88;;;;;;;3.82;100.00;98462.33;2252967;77;21034;-85
2021/12/11 10:56:51;;;;;;;101.10;52.13;;;;;;;3.90;100.00;98458.55;2224218;80;20970;-82
2021/12/11 10:59:51;;;;;;;91.45;50.50;;;;;;;3.87;100.00;98467.09;2224555;79;20982;-82
2021/12/11 11:02:52;;;;;;;192.25;102.70;;;;;;;3.75;100.00;98475.53;2264311;79;20991;-82
2021/12/11 11:05:55;;;;;;;218.20;115.22;;;;;;;3.77;100.00;98482.67;2232189;79;21013;-82
2021/12/11 11:08:56;;;;;;;151.25;78.78;;;;;;;3.84;100.00;98485.04;2224325;80;21040;-87
2021/12/11 11:11:56;;;;;;;111.77;58.80;;;;;;;3.88;100.00;98486.38;2224641;80;20958;-86
2021/12/11 11:14:57;;;;;;;80.15;45.30;;;;;;;3.91;100.00;98489.96;2262825;79;21001;-82
2021/12/11 11:17:58;;;;;;;80.70;47.05;;;;;;;3.87;100.00;98486.52;2263172;78;21070;-82
2021/12/11 11:20:59;;;;;;;110.57;62.45;;;;;;;3.87;100.00;98486.52;2262164;79;21403;-82
2021/12/11 11:24:00;;;;;;;103.65;57.03;;;;;;;3.92;100.00;98508.43;2256048;79;21509;-82
2021/12/11 11:27:01;;;;;;;139.55;76.75;;;;;;;3.92;100.00;98516.20;2222557;80;21002;-82
2021/12/11 11:30:01;;;;;;;150.65;82.72;;;;;;;3.93;100.00;98510.09;2230955;79;20959;-82
2021/12/11 11:33:02;;;;;;;205.40;102.95;;;;;;;3.95;100.00;98504.77;2258466;79;20914;-86
2021/12/11 11:36:03;;;;;;;135.15;69.10;;;;;;;4.07;100.00;98505.38;2243776;79;21030;-80
2021/12/11 11:39:05;;;;;;;207.07;110.00;;;;;;;4.12;100.00;98501.90;2262144;79;20970;-84
2021/12/11 11:42:06;;;;;;;100.60;55.28;;;;;;;4.06;100.00;98495.98;2232563;79;21016;-84
2021/12/11 11:45:07;;;;;;;99.77;59.40;;;;;;;4.14;100.00;98494.30;2227588;79;21046;-86
2021/12/11 11:48:08;;;;;;;101.67;57.23;;;;;;;4.32;100.00;98498.23;2227688;79;20910;-81
2021/12/11 11:51:09;;;;;;;88.58;52.67;;;;;;;4.43;100.00;98498.03;2221519;80;21081;-82
2021/12/11 11:54:09;;;;;;;86.47;49.10;;;;;;;4.52;100.00;98507.53;2233829;79;20978;-83
2021/12/11 11:57:10;;;;;;;90.05;53.95;;;;;;;4.52;100.00;98507.53;2237866;78;20974;-88
2021/12/11 12:00:11;;;;;;;104.97;58.40;;;;;;;4.55;100.00;98510.30;2222378;79;20942;-86
2021/12/11 12:03:12;;;;;;;113.37;62.15;;;;;;;4.48;100.00;98513.13;2221838;80;21036;-88
2021/12/11 12:06:13;;;;;;;135.25;68.57;;;;;;;4.32;100.00;98512.50;2222078;80;21061;-85
2021/12/11 12:09:13;;;;;;;132.95;70.45;;;;;;;4.29;100.00;98519.24;2220135;80;21064;-85
2021/12/11 12:12:14;;;;;;;127.72;70.75;;;;;;;4.23;100.00;98523.25;2248643;79;21009;-84
2021/12/11 12:15:15;;;;;;;124.72;70.08;;;;;;;4.19;100.00;98534.03;2261294;79;21576;-84
2021/12/11 12:18:16;;;;;;;116.40;66.72;;;;;;;4.14;100.00;98538.84;2261971;79;21034;-83
2021/12/11 12:21:17;;;;;;;100.82;61.77;;;;;;;4.14;100.00;98538.36;2262258;79;20950;-83
2021/12/11 12:24:18;;;;;;;276.30;149.82;;;;;;;4.08;100.00;98529.03;2262156;79;21639;-87
2021/12/11 12:27:19;;;;;;;302.27;171.72;;;;;;;4.08;100.00;98529.85;2264801;78;20943;-84
2021/12/11 12:30:22;;;;;;;102.10;57.98;;;;;;;4.02;100.00;98536.08;2271993;78;20988;-84
2021/12/11 12:33:25;;;;;;;85.83;51.37;;;;;;;3.97;100.00;98538.63;2243691;78;21044;-89
2021/12/11 12:36:27;;;;;;;81.72;50.12;;;;;;;3.87;100.00;98539.62;2281814;77;21009;-85
2021/12/11 12:39:33;;;;;;;81.50;46.55;;;;;;;3.80;100.00;98541.13;2268694;78;21010;-84
2021/12/11 12:42:35;;;;;;;86.67;50.33;;;;;;;3.79;100.00;98537.73;2261200;79;21028;-86
2021/12/11 12:45:33;;;;;;;87.33;51.30;;;;;;;3.70;100.00;98545.86;2231350;79;21006;-85
2021/12/11 12:48:34;;;;;;;94.17;53.17;;;;;;;3.75;100.00;98547.20;2222110;80;21545;-85
2021/12/11 12:51:35;;;;;;;397.10;171.98;;;;;;;3.68;100.00;98552.95;2221995;80;20974;-85
2021/12/11 12:54:36;;;;;;;211.95;104.15;;;;;;;3.66;100.00;98552.77;2222046;80;21065;-88
2021/12/11 12:57:36;;;;;;;126.67;64.12;;;;;;;3.59;100.00;98549.09;2280506;78;21033;-87
2021/12/11 13:00:38;;;;;;;101.00;52.25;;;;;;;3.53;100.00;98559.52;2273290;77;21015;-85
2021/12/11 13:03:39;;;;;;;100.50;56.20;;;;;;;3.41;100.00;98564.52;2221673;80;20975;-85
2021/12/11 13:06:40;;;;;;;95.65;53.92;;;;;;;3.40;100.00;98570.17;2222063;79;21021;-84
2021/12/11 13:09:41;;;;;;;106.20;59.33;;;;;;;3.39;100.00;98565.13;2221780;80;21512;-86
2021/12/11 13:12:42;;;;;;;100.60;57.00;;;;;;;3.30;100.00;98567.25;2222255;80;20998;-81
2021/12/11 13:15:42;;;;;;;113.88;69.97;;;;;;;3.15;100.00;98559.07;2221711;80;21023;-89
2021/12/11 13:18:43;;;;;;;82.70;46.42;;;;;;;2.98;100.00;98560.56;2222056;80;21489;-86
2021/12/11 13:21:44;;;;;;;76.00;44.42;;;;;;;2.83;100.00;98555.42;2221858;80;21017;-85
2021/12/11 13:24:48;;;;;;;86.22;45.88;;;;;;;2.66;100.00;98562.09;2222077;80;22057;-85
2021/12/11 13:27:48;;;;;;;83.15;46.05;;;;;;;2.51;100.00;98565.52;2226366;79;21375;-84
2021/12/11 13:30:48;;;;;;;94.15;50.98;;;;;;;2.38;100.00;98555.91;2262081;79;21516;-83
2021/12/11 13:33:49;;;;;;;105.25;55.40;;;;;;;2.33;100.00;98559.34;2262090;79;21009;-82
2021/12/11 13:36:50;;;;;;;116.97;60.28;;;;;;;2.22;100.00;98559.45;2261942;79;21529;-83
2021/12/11 13:39:51;;;;;;;118.55;59.88;;;;;;;2.11;100.00;98562.94;2251130;79;21274;-86
2021/12/11 13:42:52;;;;;;;115.85;62.53;;;;;;;1.98;100.00;98571.36;2221834;80;20986;-85
2021/12/11 13:45:53;;;;;;;111.30;57.50;;;;;;;1.88;100.00;98573.89;2221905;80;21105;-84
2021/12/11 13:48:54;;;;;;;106.37;56.63;;;;;;;1.75;100.00;98582.80;2221815;80;21539;-84
2021/12/11 13:51:55;;;;;;;107.50;57.88;;;;;;;1.68;100.00;98582.00;2222166;79;20899;-84
2021/12/11 13:54:56;;;;;;;147.35;73.72;;;;;;;1.61;100.00;98585.22;2222593;79;20993;-83
2021/12/11 13:57:57;;;;;;;122.53;63.05;;;;;;;1.57;100.00;98591.59;2255190;77;20963;-84